sensor_id;sensor_type;location;lat;lon;timestamp;pressure;altitude;pressure_sealevel;temperature;humidity
23059;BME280;30585;51.502;7.218;2023-12-04T00:01:48;100565.75;;;-0.37;83.35
23059;BME280;30585;51.502;7.218;2023-12-04T00:04:16;100562.94;;;-0.30;82.20
23059;BME280;30585;51.502;7.218;2023-12-04T00:06:44;100555.88;;;-0.31;82.63
23059;BME280;30585;51.502;7.218;2023-12-04T00:09:12;100546.28;;;-0.36;82.19
23059;BME280;30585;51.502;7.218;2023-12-04T00:11:39;100544.53;;;-0.37;82.41
23059;BME280;30585;51.502;7.218;2023-12-04T00:14:07;100540.00;;;-0.33;81.70
23059;BME280;30585;51.502;7.218;2023-12-04T00:16:35;100537.50;;;-0.38;82.03
23059;BME280;30585;51.502;7.218;2023-12-04T00:19:04;100535.72;;;-0.37;81.93
23059;BME280;30585;51.502;7.218;2023-12-04T00:21:32;100539.28;;;-0.38;81.90
23059;BME280;30585;51.502;7.218;2023-12-04T00:24:00;100539.16;;;-0.33;81.97
23059;BME280;30585;51.502;7.218;2023-12-04T00:26:27;100536.59;;;-0.37;81.52
23059;BME280;30585;51.502;7.218;2023-12-04T00:28:56;100544.50;;;-0.35;81.65
23059;BME280;30585;51.502;7.218;2023-12-04T00:31:24;100541.78;;;-0.33;81.68
23059;BME280;30585;51.502;7.218;2023-12-04T00:33:52;100537.31;;;-0.31;80.89
23059;BME280;30585;51.502;7.218;2023-12-04T00:36:21;100568.19;;;-0.29;80.51
23059;BME280;30585;51.502;7.218;2023-12-04T00:38:49;100523.97;;;-0.28;80.45
23059;BME280;30585;51.502;7.218;2023-12-04T00:41:17;100530.28;;;-0.32;81.39
23059;BME280;30585;51.502;7.218;2023-12-04T00:43:45;100521.50;;;-0.35;80.92
23059;BME280;30585;51.502;7.218;2023-12-04T00:46:13;100523.97;;;-0.28;79.26
23059;BME280;30585;51.502;7.218;2023-12-04T00:48:40;100521.25;;;-0.25;79.05
23059;BME280;30585;51.502;7.218;2023-12-04T00:51:08;100513.28;;;-0.25;79.77
23059;BME280;30585;51.502;7.218;2023-12-04T00:53:37;100511.50;;;-0.25;79.70
23059;BME280;30585;51.502;7.218;2023-12-04T00:56:06;100507.81;;;-0.21;79.35
23059;BME280;30585;51.502;7.218;2023-12-04T00:58:34;100507.06;;;-0.24;80.54
23059;BME280;30585;51.502;7.218;2023-12-04T01:01:01;100496.59;;;-0.29;79.98
23059;BME280;30585;51.502;7.218;2023-12-04T01:03:29;100496.59;;;-0.29;79.69
23059;BME280;30585;51.502;7.218;2023-12-04T01:05:59;100481.47;;;-0.25;79.95
23059;BME280;30585;51.502;7.218;2023-12-04T01:08:27;100486.78;;;-0.25;78.78
23059;BME280;30585;51.502;7.218;2023-12-04T01:10:56;100476.03;;;-0.22;79.83
23059;BME280;30585;51.502;7.218;2023-12-04T01:13:24;100477.91;;;-0.24;79.77
23059;BME280;30585;51.502;7.218;2023-12-04T01:15:51;100476.03;;;-0.22;79.16
23059;BME280;30585;51.502;7.218;2023-12-04T01:18:19;100485.84;;;-0.24;79.52
23059;BME280;30585;51.502;7.218;2023-12-04T01:20:47;100468.25;;;-0.27;79.72
23059;BME280;30585;51.502;7.218;2023-12-04T01:23:15;100461.13;;;-0.25;79.35
23059;BME280;30585;51.502;7.218;2023-12-04T01:25:42;100467.28;;;-0.24;78.18
23059;BME280;30585;51.502;7.218;2023-12-04T01:28:12;100445.38;;;-0.31;77.98
23059;BME280;30585;51.502;7.218;2023-12-04T01:30:40;100462.91;;;-0.25;78.76
23059;BME280;30585;51.502;7.218;2023-12-04T01:33:08;100463.72;;;-0.23;78.40
23059;BME280;30585;51.502;7.218;2023-12-04T01:35:36;100458.47;;;-0.25;79.32
23059;BME280;30585;51.502;7.218;2023-12-04T01:38:04;100459.38;;;-0.26;78.53
23059;BME280;30585;51.502;7.218;2023-12-04T01:40:31;100457.66;;;-0.27;78.92
23059;BME280;30585;51.502;7.218;2023-12-04T01:43:01;100454.25;;;-0.32;78.78
23059;BME280;30585;51.502;7.218;2023-12-04T01:45:30;100456.88;;;-0.30;79.11
23059;BME280;30585;51.502;7.218;2023-12-04T01:47:57;100448.81;;;-0.27;77.84
23059;BME280;30585;51.502;7.218;2023-12-04T01:50:26;100435.59;;;-0.29;78.15
23059;BME280;30585;51.502;7.218;2023-12-04T01:52:53;100435.50;;;-0.26;78.23
23059;BME280;30585;51.502;7.218;2023-12-04T01:55:21;100430.44;;;-0.33;78.06
23059;BME280;30585;51.502;7.218;2023-12-04T01:57:49;100432.19;;;-0.32;78.47
23059;BME280;30585;51.502;7.218;2023-12-04T02:00:17;100421.34;;;-0.25;77.36
23059;BME280;30585;51.502;7.218;2023-12-04T02:02:48;100419.50;;;-0.23;77.60
23059;BME280;30585;51.502;7.218;2023-12-04T02:05:16;100430.16;;;-0.24;77.54
23059;BME280;30585;51.502;7.218;2023-12-04T02:07:45;100425.66;;;-0.22;77.15
23059;BME280;30585;51.502;7.218;2023-12-04T02:10:13;100423.88;;;-0.22;77.67
23059;BME280;30585;51.502;7.218;2023-12-04T02:12:41;100437.03;;;-0.19;77.33
23059;BME280;30585;51.502;7.218;2023-12-04T02:15:09;100422.81;;;-0.16;76.41
23059;BME280;30585;51.502;7.218;2023-12-04T02:17:37;100427.25;;;-0.17;77.05
23059;BME280;30585;51.502;7.218;2023-12-04T02:20:08;100416.53;;;-0.14;74.52
23059;BME280;30585;51.502;7.218;2023-12-04T02:22:37;100426.09;;;-0.08;75.85
23059;BME280;30585;51.502;7.218;2023-12-04T02:25:07;100428.44;;;0.01;75.23
23059;BME280;30585;51.502;7.218;2023-12-04T02:27:50;100436.41;;;0.01;75.08
23059;BME280;30585;51.502;7.218;2023-12-04T02:30:21;100429.56;;;-0.06;76.31
23059;BME280;30585;51.502;7.218;2023-12-04T02:32:50;100417.78;;;0.03;74.73
23059;BME280;30585;51.502;7.218;2023-12-04T02:35:21;100383.22;;;-0.22;74.79
23059;BME280;30585;51.502;7.218;2023-12-04T02:37:50;100415.94;;;0.05;74.25
23059;BME280;30585;51.502;7.218;2023-12-04T02:40:20;100411.81;;;-0.04;75.40
23059;BME280;30585;51.502;7.218;2023-12-04T02:42:47;100404.75;;;-0.04;74.45
23059;BME280;30585;51.502;7.218;2023-12-04T02:45:15;100413.50;;;-0.02;74.12
23059;BME280;30585;51.502;7.218;2023-12-04T02:47:43;100400.03;;;0.05;72.76
23059;BME280;30585;51.502;7.218;2023-12-04T02:50:11;100404.63;;;-0.01;74.58
23059;BME280;30585;51.502;7.218;2023-12-04T02:52:38;100400.03;;;0.05;73.25
23059;BME280;30585;51.502;7.218;2023-12-04T02:55:07;100387.72;;;0.02;74.04
23059;BME280;30585;51.502;7.218;2023-12-04T02:57:37;100385.88;;;0.04;73.81
23059;BME280;30585;51.502;7.218;2023-12-04T03:00:06;100392.97;;;0.04;72.28
23059;BME280;30585;51.502;7.218;2023-12-04T03:02:34;100382.28;;;0.07;71.82
23059;BME280;30585;51.502;7.218;2023-12-04T03:05:02;100391.00;;;0.10;72.64
23059;BME280;30585;51.502;7.218;2023-12-04T03:07:30;100378.81;;;0.05;72.25
23059;BME280;30585;51.502;7.218;2023-12-04T03:09:58;100374.47;;;0.02;72.44
23059;BME280;30585;51.502;7.218;2023-12-04T03:12:25;100376.19;;;0.03;71.78
23059;BME280;30585;51.502;7.218;2023-12-04T03:14:54;100371.63;;;0.08;71.34
23059;BME280;30585;51.502;7.218;2023-12-04T03:17:22;100365.53;;;0.05;71.51
23059;BME280;30585;51.502;7.218;2023-12-04T03:19:50;100361.03;;;0.07;71.02
23059;BME280;30585;51.502;7.218;2023-12-04T03:22:18;100356.31;;;0.16;69.11
23059;BME280;30585;51.502;7.218;2023-12-04T03:24:45;100340.50;;;0.13;69.87
23059;BME280;30585;51.502;7.218;2023-12-04T03:27:14;100344.13;;;0.11;70.83
23059;BME280;30585;51.502;7.218;2023-12-04T03:29:42;100342.44;;;0.08;70.93
23059;BME280;30585;51.502;7.218;2023-12-04T03:32:11;100337.22;;;0.05;70.60
23059;BME280;30585;51.502;7.218;2023-12-04T03:34:38;100334.72;;;0.00;70.13
23059;BME280;30585;51.502;7.218;2023-12-04T03:37:06;100329.16;;;0.08;69.24
23059;BME280;30585;51.502;7.218;2023-12-04T03:39:34;100324.56;;;0.13;68.27
23059;BME280;30585;51.502;7.218;2023-12-04T03:42:02;100326.41;;;0.11;68.85
23059;BME280;30585;51.502;7.218;2023-12-04T03:44:30;100299.22;;;0.05;69.64
23059;BME280;30585;51.502;7.218;2023-12-04T03:46:58;100311.31;;;0.13;70.24
23059;BME280;30585;51.502;7.218;2023-12-04T03:49:27;100310.34;;;0.16;68.61
23059;BME280;30585;51.502;7.218;2023-12-04T03:51:55;100307.69;;;0.16;69.35
23059;BME280;30585;51.502;7.218;2023-12-04T03:54:23;100308.66;;;0.13;69.59
23059;BME280;30585;51.502;7.218;2023-12-04T03:56:51;100295.53;;;0.09;68.45
23059;BME280;30585;51.502;7.218;2023-12-04T03:59:18;100297.84;;;0.19;66.38
23059;BME280;30585;51.502;7.218;2023-12-04T04:01:46;100301.16;;;0.24;67.19
23059;BME280;30585;51.502;7.218;2023-12-04T04:04:14;100297.06;;;0.41;65.29
23059;BME280;30585;51.502;7.218;2023-12-04T04:06:43;100287.56;;;0.33;68.06
23059;BME280;30585;51.502;7.218;2023-12-04T04:09:11;100290.00;;;0.40;66.69
23059;BME280;30585;51.502;7.218;2023-12-04T04:11:39;100291.75;;;0.41;66.73
23059;BME280;30585;51.502;7.218;2023-12-04T04:14:07;100282.22;;;0.35;67.21
23059;BME280;30585;51.502;7.218;2023-12-04T04:16:34;100279.41;;;0.40;66.49
23059;BME280;30585;51.502;7.218;2023-12-04T04:19:02;100283.53;;;0.47;66.27
23059;BME280;30585;51.502;7.218;2023-12-04T04:21:30;100283.91;;;0.38;67.47
23059;BME280;30585;51.502;7.218;2023-12-04T04:24:00;100283.84;;;0.39;67.36
23059;BME280;30585;51.502;7.218;2023-12-04T04:26:28;100280.16;;;0.43;66.65
23059;BME280;30585;51.502;7.218;2023-12-04T04:28:56;100281.13;;;0.41;67.65
23059;BME280;30585;51.502;7.218;2023-12-04T04:31:23;100272.34;;;0.39;66.33
23059;BME280;30585;51.502;7.218;2023-12-04T04:33:51;100264.44;;;0.37;66.88
23059;BME280;30585;51.502;7.218;2023-12-04T04:36:19;100266.03;;;0.43;64.45
23059;BME280;30585;51.502;7.218;2023-12-04T04:38:47;100258.16;;;0.40;65.73
23059;BME280;30585;51.502;7.218;2023-12-04T04:41:16;100251.94;;;0.41;65.70
23059;BME280;30585;51.502;7.218;2023-12-04T04:43:44;100258.91;;;0.43;63.95
23059;BME280;30585;51.502;7.218;2023-12-04T04:46:12;100268.69;;;0.43;63.67
23059;BME280;30585;51.502;7.218;2023-12-04T04:48:40;100265.16;;;0.42;64.94
23059;BME280;30585;51.502;7.218;2023-12-04T04:51:08;100220.81;;;0.21;63.58
23059;BME280;30585;51.502;7.218;2023-12-04T04:53:36;100261.84;;;0.36;65.67
23059;BME280;30585;51.502;7.218;2023-12-04T04:56:04;100256.50;;;0.37;64.29
23059;BME280;30585;51.502;7.218;2023-12-04T04:58:33;100259.94;;;0.39;65.32
23059;BME280;30585;51.502;7.218;2023-12-04T05:01:02;100253.78;;;0.39;64.89
23059;BME280;30585;51.502;7.218;2023-12-04T05:03:30;100250.16;;;0.41;65.10
23059;BME280;30585;51.502;7.218;2023-12-04T05:05:58;100255.03;;;0.52;63.63
23059;BME280;30585;51.502;7.218;2023-12-04T05:08:26;100243.66;;;0.48;63.24
23059;BME280;30585;51.502;7.218;2023-12-04T05:10:54;100258.72;;;0.48;64.20
23059;BME280;30585;51.502;7.218;2023-12-04T05:13:21;100248.06;;;0.49;62.76
23059;BME280;30585;51.502;7.218;2023-12-04T05:15:50;100241.53;;;0.58;61.66
23059;BME280;30585;51.502;7.218;2023-12-04T05:18:18;100240.94;;;0.50;63.76
23059;BME280;30585;51.502;7.218;2023-12-04T05:20:46;100236.56;;;0.49;64.27
23059;BME280;30585;51.502;7.218;2023-12-04T05:23:14;100233.31;;;0.42;63.67
23059;BME280;30585;51.502;7.218;2023-12-04T05:25:42;100232.00;;;0.52;62.71
23059;BME280;30585;51.502;7.218;2023-12-04T05:28:15;100225.03;;;0.50;64.15
23059;BME280;30585;51.502;7.218;2023-12-04T05:30:43;100233.09;;;0.47;64.98
23059;BME280;30585;51.502;7.218;2023-12-04T05:33:13;100230.38;;;0.48;65.00
23059;BME280;30585;51.502;7.218;2023-12-04T05:35:40;100241.94;;;0.47;64.65
23059;BME280;30585;51.502;7.218;2023-12-04T05:38:08;100239.09;;;0.52;63.57
23059;BME280;30585;51.502;7.218;2023-12-04T05:40:36;100230.53;;;0.45;64.73
23059;BME280;30585;51.502;7.218;2023-12-04T05:43:04;100222.25;;;0.53;63.64
23059;BME280;30585;51.502;7.218;2023-12-04T05:45:31;100211.00;;;0.46;64.83
23059;BME280;30585;51.502;7.218;2023-12-04T05:47:59;100207.69;;;0.41;65.71
23059;BME280;30585;51.502;7.218;2023-12-04T05:50:28;100212.13;;;0.41;64.83
23059;BME280;30585;51.502;7.218;2023-12-04T05:52:56;100219.09;;;0.43;65.56
23059;BME280;30585;51.502;7.218;2023-12-04T05:55:25;100214.53;;;0.47;64.40
23059;BME280;30585;51.502;7.218;2023-12-04T05:57:53;100216.94;;;0.53;64.45
23059;BME280;30585;51.502;7.218;2023-12-04T06:00:21;100209.00;;;0.53;62.54
23059;BME280;30585;51.502;7.218;2023-12-04T06:02:53;100222.63;;;0.44;63.90
23059;BME280;30585;51.502;7.218;2023-12-04T06:05:24;100228.03;;;0.41;64.96
23059;BME280;30585;51.502;7.218;2023-12-04T06:07:53;100224.59;;;0.39;64.88
23059;BME280;30585;51.502;7.218;2023-12-04T06:10:20;100230.66;;;0.42;66.05
23059;BME280;30585;51.502;7.218;2023-12-04T06:12:48;100229.84;;;0.40;65.22
23059;BME280;30585;51.502;7.218;2023-12-04T06:15:16;100227.88;;;0.45;65.73
23059;BME280;30585;51.502;7.218;2023-12-04T06:17:44;100231.38;;;0.46;64.04
23059;BME280;30585;51.502;7.218;2023-12-04T06:20:12;100227.19;;;0.40;64.47
23059;BME280;30585;51.502;7.218;2023-12-04T06:22:40;100226.16;;;0.44;65.47
23059;BME280;30585;51.502;7.218;2023-12-04T06:25:10;100223.41;;;0.46;65.13
23059;BME280;30585;51.502;7.218;2023-12-04T06:27:39;100218.19;;;0.44;65.54
23059;BME280;30585;51.502;7.218;2023-12-04T06:30:07;100221.63;;;0.46;64.43
23059;BME280;30585;51.502;7.218;2023-12-04T06:32:35;100210.88;;;0.49;64.09
23059;BME280;30585;51.502;7.218;2023-12-04T06:35:04;100203.91;;;0.47;64.98
23059;BME280;30585;51.502;7.218;2023-12-04T06:37:32;100193.28;;;0.47;63.38
23059;BME280;30585;51.502;7.218;2023-12-04T06:40:01;100166.63;;;0.26;65.64
23059;BME280;30585;51.502;7.218;2023-12-04T06:42:31;100185.63;;;0.39;65.03
23059;BME280;30585;51.502;7.218;2023-12-04T06:44:59;100187.41;;;0.39;64.14
23059;BME280;30585;51.502;7.218;2023-12-04T06:47:28;100181.19;;;0.40;64.98
23059;BME280;30585;51.502;7.218;2023-12-04T06:49:58;100175.06;;;0.38;65.73
23059;BME280;30585;51.502;7.218;2023-12-04T06:52:26;100027.94;;;-0.46;64.54
23059;BME280;30585;51.502;7.218;2023-12-04T06:54:53;100174.53;;;0.28;66.52
23059;BME280;30585;51.502;7.218;2023-12-04T06:57:21;100166.34;;;0.34;64.99
23059;BME280;30585;51.502;7.218;2023-12-04T06:59:50;100162.63;;;0.40;65.47
23059;BME280;30585;51.502;7.218;2023-12-04T07:02:18;100160.13;;;0.35;65.48
23059;BME280;30585;51.502;7.218;2023-12-04T07:04:46;100153.25;;;0.29;65.54
23059;BME280;30585;51.502;7.218;2023-12-04T07:07:14;100147.03;;;0.30;65.02
23059;BME280;30585;51.502;7.218;2023-12-04T07:09:42;100146.22;;;0.28;66.05
23059;BME280;30585;51.502;7.218;2023-12-04T07:12:09;100137.28;;;0.31;63.74
23059;BME280;30585;51.502;7.218;2023-12-04T07:14:52;100141.66;;;0.32;64.70
23059;BME280;30585;51.502;7.218;2023-12-04T07:17:19;100147.84;;;0.32;65.47
23059;BME280;30585;51.502;7.218;2023-12-04T07:19:48;100132.94;;;0.28;65.67
23059;BME280;30585;51.502;7.218;2023-12-04T07:22:16;100129.94;;;0.38;64.61
23059;BME280;30585;51.502;7.218;2023-12-04T07:24:44;100126.53;;;0.34;65.04
23059;BME280;30585;51.502;7.218;2023-12-04T07:27:12;100121.00;;;0.40;62.16
23059;BME280;30585;51.502;7.218;2023-12-04T07:29:39;100121.88;;;0.41;64.92
23059;BME280;30585;51.502;7.218;2023-12-04T07:32:09;100119.09;;;0.44;62.94
23059;BME280;30585;51.502;7.218;2023-12-04T07:34:36;100112.72;;;0.48;63.83
23059;BME280;30585;51.502;7.218;2023-12-04T07:37:04;100113.00;;;0.42;63.19
23059;BME280;30585;51.502;7.218;2023-12-04T07:39:32;100115.53;;;0.45;64.24
23059;BME280;30585;51.502;7.218;2023-12-04T07:42:00;100112.78;;;0.46;63.22
23059;BME280;30585;51.502;7.218;2023-12-04T07:44:38;100101.38;;;0.44;63.94
23059;BME280;30585;51.502;7.218;2023-12-04T07:47:06;100107.56;;;0.45;63.50
23059;BME280;30585;51.502;7.218;2023-12-04T07:49:34;100055.31;;;0.23;63.46
23059;BME280;30585;51.502;7.218;2023-12-04T07:52:02;100099.34;;;0.51;64.63
23059;BME280;30585;51.502;7.218;2023-12-04T07:54:31;100085.88;;;0.55;64.45
23059;BME280;30585;51.502;7.218;2023-12-04T07:56:59;100078.03;;;0.52;65.06
23059;BME280;30585;51.502;7.218;2023-12-04T07:59:27;100065.22;;;0.42;65.29
23059;BME280;30585;51.502;7.218;2023-12-04T08:01:54;100076.31;;;0.51;64.01
23059;BME280;30585;51.502;7.218;2023-12-04T08:04:22;100075.19;;;0.57;63.07
23059;BME280;30585;51.502;7.218;2023-12-04T08:06:52;100081.06;;;0.65;62.89
23059;BME280;30585;51.502;7.218;2023-12-04T08:09:19;100074.22;;;0.59;63.50
23059;BME280;30585;51.502;7.218;2023-12-04T08:11:48;100071.25;;;0.67;63.55
23059;BME280;30585;51.502;7.218;2023-12-04T08:14:15;100061.34;;;0.71;62.37
23059;BME280;30585;51.502;7.218;2023-12-04T08:16:43;100059.69;;;0.68;64.26
23059;BME280;30585;51.502;7.218;2023-12-04T08:19:11;100057.75;;;0.72;62.43
23059;BME280;30585;51.502;7.218;2023-12-04T08:21:39;100062.16;;;0.73;63.72
23059;BME280;30585;51.502;7.218;2023-12-04T08:24:08;100061.28;;;0.72;63.11
23059;BME280;30585;51.502;7.218;2023-12-04T08:26:36;100065.66;;;0.73;64.44
23059;BME280;30585;51.502;7.218;2023-12-04T08:29:04;100060.06;;;0.81;60.71
23059;BME280;30585;51.502;7.218;2023-12-04T08:31:31;100056.53;;;0.80;63.96
23059;BME280;30585;51.502;7.218;2023-12-04T08:33:59;100059.19;;;0.80;63.27
23059;BME280;30585;51.502;7.218;2023-12-04T08:36:27;100074.31;;;0.78;62.66
23059;BME280;30585;51.502;7.218;2023-12-04T08:39:11;100063.97;;;0.92;61.21
23059;BME280;30585;51.502;7.218;2023-12-04T08:41:39;100071.28;;;0.87;62.45
23059;BME280;30585;51.502;7.218;2023-12-04T08:44:16;100073.72;;;0.92;63.25
23059;BME280;30585;51.502;7.218;2023-12-04T08:46:44;100072.38;;;1.03;61.97
23059;BME280;30585;51.502;7.218;2023-12-04T08:49:12;100066.25;;;1.01;59.32
23059;BME280;30585;51.502;7.218;2023-12-04T08:51:40;100062.66;;;1.02;62.12
23059;BME280;30585;51.502;7.218;2023-12-04T08:54:08;100058.09;;;1.06;62.36
23059;BME280;30585;51.502;7.218;2023-12-04T08:56:40;100060.56;;;1.11;59.63
23059;BME280;30585;51.502;7.218;2023-12-04T08:59:08;100049.06;;;1.10;61.68
23059;BME280;30585;51.502;7.218;2023-12-04T09:01:36;100050.50;;;1.17;59.26
23059;BME280;30585;51.502;7.218;2023-12-04T09:04:04;100052.91;;;1.23;60.48
23059;BME280;30585;51.502;7.218;2023-12-04T09:06:32;100036.75;;;1.28;60.44
23059;BME280;30585;51.502;7.218;2023-12-04T09:09:03;100042.06;;;1.28;60.44
23059;BME280;30585;51.502;7.218;2023-12-04T09:11:41;100032.31;;;1.28;60.37
23059;BME280;30585;51.502;7.218;2023-12-04T09:14:09;100034.84;;;1.31;59.97
23059;BME280;30585;51.502;7.218;2023-12-04T09:16:37;100041.81;;;1.34;60.30
23059;BME280;30585;51.502;7.218;2023-12-04T09:19:05;99962.38;;;0.87;59.28
23059;BME280;30585;51.502;7.218;2023-12-04T09:21:33;100026.56;;;1.37;59.28
23059;BME280;30585;51.502;7.218;2023-12-04T09:24:03;100035.69;;;1.52;56.61
23059;BME280;30585;51.502;7.218;2023-12-04T09:26:32;100032.34;;;1.47;59.66
23059;BME280;30585;51.502;7.218;2023-12-04T09:29:01;100027.16;;;1.44;60.08
23059;BME280;30585;51.502;7.218;2023-12-04T09:31:29;100022.78;;;1.43;61.06
23059;BME280;30585;51.502;7.218;2023-12-04T09:33:57;100017.25;;;1.48;60.64
23059;BME280;30585;51.502;7.218;2023-12-04T09:36:25;100016.25;;;1.50;61.40
23059;BME280;30585;51.502;7.218;2023-12-04T09:38:53;100007.16;;;1.56;59.69
23059;BME280;30585;51.502;7.218;2023-12-04T09:41:21;100005.13;;;1.61;59.84
23059;BME280;30585;51.502;7.218;2023-12-04T09:43:49;100006.78;;;1.63;59.75
23059;BME280;30585;51.502;7.218;2023-12-04T09:46:19;99997.59;;;1.70;59.00
23059;BME280;30585;51.502;7.218;2023-12-04T09:48:48;99988.47;;;1.76;59.11
23059;BME280;30585;51.502;7.218;2023-12-04T09:51:18;99992.94;;;1.76;60.87
23059;BME280;30585;51.502;7.218;2023-12-04T09:53:48;99980.19;;;1.82;60.50
23059;BME280;30585;51.502;7.218;2023-12-04T09:56:17;99968.53;;;1.85;61.48
23059;BME280;30585;51.502;7.218;2023-12-04T09:58:46;99973.00;;;1.84;62.10
23059;BME280;30585;51.502;7.218;2023-12-04T10:01:20;99971.13;;;1.86;61.93
23059;BME280;30585;51.502;7.218;2023-12-04T10:03:49;99968.53;;;1.85;63.29
23059;BME280;30585;51.502;7.218;2023-12-04T10:06:18;99964.53;;;1.95;63.48
23059;BME280;30585;51.502;7.218;2023-12-04T10:08:46;99962.56;;;1.98;62.41
23059;BME280;30585;51.502;7.218;2023-12-04T10:11:14;99964.22;;;2.01;63.80
23059;BME280;30585;51.502;7.218;2023-12-04T10:13:42;99956.78;;;2.08;63.13
23059;BME280;30585;51.502;7.218;2023-12-04T10:16:34;99943.38;;;1.92;63.31
23059;BME280;30585;51.502;7.218;2023-12-04T10:19:15;99957.66;;;2.08;63.77
23059;BME280;30585;51.502;7.218;2023-12-04T10:21:44;99952.03;;;2.14;62.52
23059;BME280;30585;51.502;7.218;2023-12-04T10:24:13;99941.25;;;2.17;62.69
23059;BME280;30585;51.502;7.218;2023-12-04T10:26:50;99946.44;;;2.20;60.85
23059;BME280;30585;51.502;7.218;2023-12-04T10:29:18;99932.78;;;2.26;61.11
23059;BME280;30585;51.502;7.218;2023-12-04T10:31:47;99922.25;;;2.25;60.31
23059;BME280;30585;51.502;7.218;2023-12-04T10:34:17;99955.81;;;2.27;61.39
23059;BME280;30585;51.502;7.218;2023-12-04T10:36:45;99927.25;;;2.31;57.73
23059;BME280;30585;51.502;7.218;2023-12-04T10:39:13;99917.38;;;2.33;58.53
23059;BME280;30585;51.502;7.218;2023-12-04T10:41:41;99920.97;;;2.32;57.95
23059;BME280;30585;51.502;7.218;2023-12-04T10:44:09;99888.31;;;2.11;57.32
23059;BME280;30585;51.502;7.218;2023-12-04T10:46:38;99892.78;;;2.11;59.90
23059;BME280;30585;51.502;7.218;2023-12-04T10:49:10;99916.22;;;2.21;60.30
23059;BME280;30585;51.502;7.218;2023-12-04T10:51:39;99913.41;;;2.24;60.41
23059;BME280;30585;51.502;7.218;2023-12-04T10:54:06;99901.47;;;2.14;60.50
23059;BME280;30585;51.502;7.218;2023-12-04T10:56:36;99876.50;;;1.99;61.42
23059;BME280;30585;51.502;7.218;2023-12-04T10:59:11;99870.53;;;1.94;62.40
23059;BME280;30585;51.502;7.218;2023-12-04T11:01:41;99903.03;;;2.18;59.88
23059;BME280;30585;51.502;7.218;2023-12-04T11:04:16;99902.25;;;2.16;60.76
23059;BME280;30585;51.502;7.218;2023-12-04T11:06:48;99894.06;;;2.21;61.76
23059;BME280;30585;51.502;7.218;2023-12-04T11:09:17;99894.91;;;2.21;62.07
23059;BME280;30585;51.502;7.218;2023-12-04T11:11:50;99895.78;;;2.22;60.72
23059;BME280;30585;51.502;7.218;2023-12-04T11:14:22;99896.88;;;2.18;60.02
23059;BME280;30585;51.502;7.218;2023-12-04T11:16:58;99873.03;;;1.97;62.78
23059;BME280;30585;51.502;7.218;2023-12-04T11:19:35;99887.66;;;2.06;61.90
23059;BME280;30585;51.502;7.218;2023-12-04T11:22:07;99897.88;;;2.15;62.20
23059;BME280;30585;51.502;7.218;2023-12-04T11:24:35;99892.56;;;2.15;62.21
23059;BME280;30585;51.502;7.218;2023-12-04T11:27:04;99897.88;;;2.15;62.66
23059;BME280;30585;51.502;7.218;2023-12-04T11:29:32;99900.59;;;2.14;62.70
23059;BME280;30585;51.502;7.218;2023-12-04T11:32:00;99894.09;;;2.02;63.50
23059;BME280;30585;51.502;7.218;2023-12-04T11:34:32;99893.19;;;2.03;62.87
23059;BME280;30585;51.502;7.218;2023-12-04T11:37:03;99892.53;;;1.98;63.15
23059;BME280;30585;51.502;7.218;2023-12-04T11:39:33;99883.91;;;1.93;64.74
23059;BME280;30585;51.502;7.218;2023-12-04T11:42:01;99877.66;;;1.94;64.46
23059;BME280;30585;51.502;7.218;2023-12-04T11:44:29;99881.09;;;1.96;65.46
23059;BME280;30585;51.502;7.218;2023-12-04T11:47:04;99878.59;;;1.93;63.96
23059;BME280;30585;51.502;7.218;2023-12-04T11:49:34;99882.31;;;1.89;64.56
23059;BME280;30585;51.502;7.218;2023-12-04T11:52:03;99871.22;;;1.81;65.78
23059;BME280;30585;51.502;7.218;2023-12-04T11:54:56;99873.00;;;1.80;65.92
23059;BME280;30585;51.502;7.218;2023-12-04T11:57:25;99855.97;;;1.65;65.27
23059;BME280;30585;51.502;7.218;2023-12-04T12:00:19;99860.00;;;1.74;66.35
23059;BME280;30585;51.502;7.218;2023-12-04T12:03:00;99872.91;;;1.82;67.08
23059;BME280;30585;51.502;7.218;2023-12-04T12:05:50;99858.06;;;1.78;66.64
23059;BME280;30585;51.502;7.218;2023-12-04T12:08:20;99871.81;;;1.86;68.26
23059;BME280;30585;51.502;7.218;2023-12-04T12:10:50;99860.88;;;1.75;67.58
23059;BME280;30585;51.502;7.218;2023-12-04T12:13:19;99868.56;;;1.81;69.40
23059;BME280;30585;51.502;7.218;2023-12-04T12:15:47;99856.81;;;1.85;69.70
23059;BME280;30585;51.502;7.218;2023-12-04T12:18:17;99859.38;;;1.86;69.19
23059;BME280;30585;51.502;7.218;2023-12-04T12:20:45;99811.06;;;1.59;69.59
23059;BME280;30585;51.502;7.218;2023-12-04T12:23:14;99849.75;;;1.84;69.91
23059;BME280;30585;51.502;7.218;2023-12-04T12:25:42;99846.72;;;1.91;70.22
23059;BME280;30585;51.502;7.218;2023-12-04T12:28:10;99838.66;;;1.93;70.90
23059;BME280;30585;51.502;7.218;2023-12-04T12:30:37;99842.19;;;1.93;71.27
23059;BME280;30585;51.502;7.218;2023-12-04T12:33:06;99824.88;;;1.85;71.20
23059;BME280;30585;51.502;7.218;2023-12-04T12:35:35;99823.78;;;1.89;71.97
23059;BME280;30585;51.502;7.218;2023-12-04T12:38:04;99820.56;;;1.82;71.98
23059;BME280;30585;51.502;7.218;2023-12-04T12:40:33;99801.34;;;1.58;72.21
23059;BME280;30585;51.502;7.218;2023-12-04T12:43:05;99808.53;;;1.75;73.54
23059;BME280;30585;51.502;7.218;2023-12-04T12:45:39;99798.97;;;1.71;74.43
23059;BME280;30585;51.502;7.218;2023-12-04T12:48:10;99796.16;;;1.74;73.33
23059;BME280;30585;51.502;7.218;2023-12-04T12:50:38;99792.50;;;1.77;73.25
23059;BME280;30585;51.502;7.218;2023-12-04T12:53:05;99781.38;;;1.68;74.55
23059;BME280;30585;51.502;7.218;2023-12-04T12:55:37;99770.44;;;1.75;74.50
23059;BME280;30585;51.502;7.218;2023-12-04T12:58:05;99765.75;;;1.80;74.37
23059;BME280;30585;51.502;7.218;2023-12-04T13:00:34;99771.16;;;1.78;73.78
23059;BME280;30585;51.502;7.218;2023-12-04T13:03:03;99766.06;;;1.74;74.91
23059;BME280;30585;51.502;7.218;2023-12-04T13:05:31;99761.81;;;1.69;75.37
23059;BME280;30585;51.502;7.218;2023-12-04T13:07:59;99767.00;;;1.73;74.98
23059;BME280;30585;51.502;7.218;2023-12-04T13:10:27;99761.66;;;1.73;75.36